Time;durP1;ratioP1;P1;durP2;ratioP2;P2;SDS_P1;SDS_P2;PMS_P1;PMS_P2;Temp;Humidity;BMP_temperature;BMP_pressure;BME280_temperature;BME280_humidity;BME280_pressure;Samples;Min_cycle;Max_cycle;Signal;HPM_P1;HPM_P2
2023/04/28 00:02:01;;;;;;;0.55;0.55;;;15.60;67.10;;;15.62;51.27;95120.84;5032101;28;20199;-38
2023/04/28 00:04:28;;;;;;;0.65;0.65;;;15.60;67.10;;;15.61;51.10;95111.34;5031753;28;20193;-38
2023/04/28 00:06:56;;;;;;;0.50;0.50;;;15.60;67.20;;;15.60;51.08;95108.88;5031586;28;20670;-38
2023/04/28 00:09:23;;;;;;;0.60;0.60;;;15.60;67.20;;;15.60;51.41;95100.97;5031837;28;20218;-38
2023/04/28 00:11:50;;;;;;;0.60;0.60;;;15.60;67.20;;;15.58;51.38;95097.75;5031264;28;20207;-38
2023/04/28 00:14:16;;;;;;;0.55;0.55;;;15.60;67.30;;;15.59;51.21;95108.09;5030995;28;20192;-39
2023/04/28 00:16:44;;;;;;;0.60;0.60;;;15.50;67.20;;;15.58;51.23;95103.03;5030600;28;20216;-38
2023/04/28 00:19:11;;;;;;;0.60;0.60;;;15.60;67.30;;;15.57;51.23;95109.34;5031995;28;20236;-38
2023/04/28 00:21:38;;;;;;;0.70;0.70;;;15.50;67.20;;;15.57;51.24;95098.75;5031903;28;20221;-38
2023/04/28 00:24:06;;;;;;;0.60;0.60;;;15.50;67.20;;;15.55;51.18;95099.00;5031654;28;20196;-38
2023/04/28 00:26:33;;;;;;;0.60;0.60;;;15.50;67.30;;;15.55;51.84;95099.00;5032096;28;20216;-38
2023/04/28 00:29:00;;;;;;;0.60;0.60;;;15.50;67.30;;;15.53;51.75;95096.53;5031578;28;20512;-38
2023/04/28 00:31:27;;;;;;;0.57;0.57;;;15.50;67.30;;;15.52;51.45;95089.63;5031737;28;20271;-39
2023/04/28 00:33:54;;;;;;;0.50;0.50;;;15.50;67.30;;;15.52;51.40;95089.63;5031788;28;20231;-39
2023/04/28 00:36:21;;;;;;;0.60;0.60;;;15.50;67.30;;;15.51;51.40;95092.50;5013994;28;20222;-40
2023/04/28 00:38:48;;;;;;;0.50;0.50;;;15.50;67.40;;;15.50;51.34;95094.34;5031469;28;20196;-39
2023/04/28 00:41:15;;;;;;;0.50;0.50;;;15.50;67.30;;;15.49;51.89;95090.09;5031467;28;20623;-40
2023/04/28 00:43:49;;;;;;;0.52;0.52;;;15.50;67.40;;;15.47;51.84;95094.78;5033899;28;20204;-40
2023/04/28 00:46:24;;;;;;;0.60;0.60;;;15.50;67.60;;;15.47;51.55;95100.06;5034787;28;20622;-40
2023/04/28 00:48:52;;;;;;;0.60;0.60;;;15.50;67.50;;;15.45;51.61;95096.03;5035191;28;20274;-40
2023/04/28 00:51:20;;;;;;;0.50;0.50;;;15.50;67.40;;;15.44;51.87;95095.22;5034727;28;20203;-40
2023/04/28 00:53:47;;;;;;;0.50;0.50;;;15.50;67.50;;;15.44;51.62;95083.81;5034945;28;20207;-41
2023/04/28 00:56:14;;;;;;;0.60;0.60;;;15.40;67.50;;;15.43;51.91;95096.25;5034504;28;20646;-39
2023/04/28 00:58:42;;;;;;;0.50;0.50;;;15.40;67.50;;;15.42;51.67;95088.53;5017452;28;20195;-39
2023/04/28 01:01:10;;;;;;;0.55;0.55;;;15.40;67.50;;;15.40;51.63;95078.16;5034624;28;20241;-39
2023/04/28 01:03:39;;;;;;;0.60;0.60;;;15.40;67.50;;;15.40;51.70;95083.44;5034595;28;20593;-39
2023/04/28 01:06:08;;;;;;;0.60;0.60;;;15.40;67.50;;;15.38;51.72;95082.88;5034632;28;20228;-39
2023/04/28 01:08:38;;;;;;;0.52;0.52;;;15.40;67.50;;;15.38;51.89;95074.94;5034476;28;20523;-40
2023/04/28 01:11:12;;;;;;;0.60;0.60;;;15.40;67.60;;;15.36;52.16;95075.16;5017175;28;20238;-40
2023/04/28 01:14:00;;;;;;;0.55;0.55;;;15.40;67.60;;;15.34;51.98;95082.50;5034112;28;20201;-40
2023/04/28 01:16:31;;;;;;;0.70;0.70;;;15.40;68.50;;;15.34;52.14;95076.41;5033295;28;20311;-39
2023/04/28 01:18:59;;;;;;;0.60;0.60;;;15.40;67.60;;;15.32;52.23;95075.81;5050236;28;20196;-39
2023/04/28 01:21:31;;;;;;;0.50;0.50;;;15.40;67.60;;;15.32;52.28;95079.25;5017727;28;20321;-39
2023/04/28 01:24:05;;;;;;;0.60;0.60;;;15.40;67.70;;;15.30;52.28;95068.09;5016857;28;20200;-39
2023/04/28 01:26:32;;;;;;;0.60;0.60;;;15.40;67.80;;;15.30;51.91;95078.66;5016878;28;20265;-40
2023/04/28 01:29:00;;;;;;;0.60;0.60;;;15.40;67.70;;;15.29;52.06;95070.97;5033218;28;20202;-40
2023/04/28 01:31:29;;;;;;;0.60;0.60;;;15.30;67.70;;;15.29;51.92;95073.59;5033256;28;20208;-39
2023/04/28 01:33:57;;;;;;;0.63;0.63;;;15.40;67.80;;;15.28;52.27;95074.63;5034549;28;20198;-39
2023/04/28 01:36:27;;;;;;;0.60;0.60;;;15.30;67.70;;;15.26;51.99;95061.63;5034169;28;20548;-39
2023/04/28 01:38:54;;;;;;;0.50;0.50;;;15.30;67.70;;;15.26;52.13;95066.09;5017003;28;20597;-39
2023/04/28 01:41:21;;;;;;;0.60;0.60;;;15.30;67.80;;;15.25;52.40;95057.38;5034021;28;20192;-39
2023/04/28 01:43:48;;;;;;;0.60;0.60;;;15.40;67.80;;;15.25;52.15;95064.50;5033932;28;20541;-39
2023/04/28 01:46:15;;;;;;;0.50;0.50;;;15.30;67.70;;;15.23;52.18;95066.53;5033823;28;20192;-39
2023/04/28 01:48:42;;;;;;;0.50;0.50;;;15.30;67.80;;;15.22;52.18;95073.66;5034129;28;20220;-39
2023/04/28 01:51:11;;;;;;;0.60;0.60;;;15.30;67.80;;;15.20;52.54;95065.16;5032926;28;20267;-39
2023/04/28 01:53:38;;;;;;;0.60;0.60;;;15.30;67.80;;;15.19;52.61;95061.69;5033637;28;20647;-39
2023/04/28 01:56:05;;;;;;;0.60;0.60;;;15.30;67.80;;;15.19;52.73;95061.69;5033874;28;20184;-39
2023/04/28 01:58:34;;;;;;;0.50;0.50;;;15.30;68.80;;;15.18;52.39;95062.72;5033027;28;20274;-39
2023/04/28 02:01:01;;;;;;;0.80;0.80;;;15.30;67.90;;;15.18;52.71;95064.53;5033678;28;20215;-39
2023/04/28 02:03:28;;;;;;;0.50;0.50;;;15.30;67.90;;;15.16;52.72;95053.38;5016240;28;20559;-39
2023/04/28 02:05:55;;;;;;;0.50;0.50;;;15.30;67.90;;;15.15;52.42;95057.88;5033700;28;20238;-39
2023/04/28 02:08:22;;;;;;;0.60;0.60;;;15.30;67.90;;;15.14;52.68;95055.44;5016109;28;20201;-39
2023/04/28 02:10:51;;;;;;;0.70;0.70;;;15.20;67.80;;;15.15;52.58;95049.16;5000231;28;20223;-39
2023/04/28 02:13:18;;;;;;;0.60;0.60;;;15.20;67.90;;;15.13;52.51;95046.69;5000244;28;20200;-39
2023/04/28 02:15:45;;;;;;;0.60;0.60;;;15.20;67.90;;;15.11;52.79;95048.78;5032546;28;20196;-39
2023/04/28 02:18:12;;;;;;;0.43;0.43;;;15.20;67.90;;;15.11;52.68;95040.03;5033441;28;20587;-39
2023/04/28 02:20:39;;;;;;;0.60;0.60;;;15.20;68.00;;;15.11;52.78;95038.19;5032452;28;20200;-39
2023/04/28 02:23:07;;;;;;;0.60;0.60;;;15.20;68.00;;;15.09;52.98;95040.25;5015960;28;20638;-39
2023/04/28 02:25:34;;;;;;;0.50;0.50;;;15.20;68.00;;;15.09;52.97;95047.34;5032380;28;20264;-39
2023/04/28 02:28:03;;;;;;;0.70;0.70;;;15.20;68.00;;;15.07;52.99;95047.56;5032517;28;20207;-39
2023/04/28 02:30:33;;;;;;;0.60;0.60;;;15.20;68.10;;;15.06;52.60;95045.94;5032466;28;20291;-39
2023/04/28 02:33:00;;;;;;;0.60;0.60;;;15.20;68.10;;;15.05;53.05;95042.50;5033457;28;20200;-39
2023/04/28 02:35:27;;;;;;;0.63;0.63;;;15.20;68.10;;;15.05;52.97;95039.88;5032392;28;20205;-39
2023/04/28 02:37:54;;;;;;;0.60;0.60;;;15.20;68.10;;;15.04;53.05;95034.81;5015579;28;20277;-39
2023/04/28 02:40:21;;;;;;;0.50;0.50;;;15.20;68.10;;;15.03;52.73;95047.19;5032424;28;20588;-39
2023/04/28 02:42:48;;;;;;;0.60;0.60;;;15.20;68.10;;;15.02;53.13;95039.50;5032123;28;20212;-39
2023/04/28 02:45:15;;;;;;;0.60;0.60;;;15.10;68.10;;;15.02;53.19;95047.41;5033026;28;20196;-39
2023/04/28 02:47:43;;;;;;;0.60;0.60;;;15.20;68.20;;;15.01;52.86;95040.50;5048511;28;20236;-39
2023/04/28 02:50:10;;;;;;;0.63;0.63;;;15.10;68.10;;;15.00;52.97;95046.81;5033309;28;20605;-39
2023/04/28 02:52:37;;;;;;;0.63;0.63;;;15.20;68.20;;;14.99;53.11;95042.53;5015471;28;20233;-39
2023/04/28 02:55:05;;;;;;;0.63;0.63;;;15.10;68.20;;;14.98;52.72;95036.47;5032857;28;20204;-39
2023/04/28 02:57:33;;;;;;;0.70;0.70;;;15.10;68.20;;;14.98;53.33;95040.97;4999247;28;20212;-39
2023/04/28 03:00:00;;;;;;;0.60;0.60;;;15.10;68.20;;;14.97;52.82;95039.34;4999367;28;20200;-39
2023/04/28 03:02:34;;;;;;;0.70;0.70;;;15.10;68.30;;;14.95;53.57;95047.47;5015666;28;20212;-39
2023/04/28 03:05:01;;;;;;;0.50;0.50;;;15.10;68.30;;;14.95;53.44;95041.38;5031462;28;20206;-40
2023/04/28 03:07:28;;;;;;;0.60;0.60;;;15.10;68.40;;;14.94;53.08;95043.22;5015665;28;20208;-39
2023/04/28 03:09:55;;;;;;;0.60;0.60;;;15.10;68.30;;;14.93;53.35;95038.97;5031721;28;20264;-41
2023/04/28 03:12:22;;;;;;;0.70;0.70;;;15.10;68.40;;;14.93;52.91;95038.13;5032898;28;20194;-41
2023/04/28 03:14:49;;;;;;;0.65;0.65;;;15.10;68.40;;;14.92;53.44;95039.19;5031637;28;20198;-41
2023/04/28 03:17:16;;;;;;;0.60;0.60;;;15.10;68.40;;;14.90;53.52;95039.38;5014940;28;20222;-41
2023/04/28 03:19:44;;;;;;;0.57;0.57;;;15.10;68.40;;;14.90;53.38;95039.38;5031781;28;20605;-41
2023/04/28 03:22:11;;;;;;;0.60;0.60;;;15.10;68.40;;;14.89;53.60;95049.16;5015343;28;20222;-41
2023/04/28 03:24:38;;;;;;;0.60;0.60;;;15.00;68.40;;;14.88;53.59;95042.25;5032448;28;20189;-41
2023/04/28 03:27:05;;;;;;;0.50;0.50;;;15.00;68.40;;;14.88;53.54;95041.44;5014895;28;20208;-41
2023/04/28 03:29:32;;;;;;;0.70;0.70;;;15.00;68.50;;;14.88;53.13;95044.88;5014999;28;20702;-42
2023/04/28 03:32:00;;;;;;;0.50;0.50;;;15.10;68.50;;;14.87;53.67;95047.75;5031462;28;20207;-41
2023/04/28 03:34:27;;;;;;;0.60;0.60;;;15.00;68.50;;;14.86;53.32;95051.41;5014874;28;20638;-40
2023/04/28 03:36:54;;;;;;;0.70;0.70;;;15.00;68.50;;;14.86;53.79;95054.03;5015023;28;20215;-41
2023/04/28 03:39:26;;;;;;;0.60;0.60;;;15.10;68.60;;;14.84;53.82;95048.97;5031354;28;20649;-41
2023/04/28 03:41:53;;;;;;;0.75;0.75;;;15.00;68.50;;;14.82;53.62;95044.94;5015332;28;20249;-41
2023/04/28 03:44:35;;;;;;;0.55;0.55;;;15.00;68.60;;;14.82;53.69;95037.03;5032743;28;20181;-41
2023/04/28 03:47:03;;;;;;;0.80;0.80;;;15.00;68.60;;;14.81;53.70;95036.19;5031350;28;20530;-41
2023/04/28 03:49:30;;;;;;;0.68;0.68;;;15.00;68.70;;;14.81;54.08;95038.03;5031168;28;20601;-41
2023/04/28 03:51:57;;;;;;;0.60;0.60;;;15.00;68.60;;;14.80;53.60;95039.84;5031131;28;20201;-41
2023/04/28 03:54:25;;;;;;;0.50;0.50;;;15.00;68.70;;;14.80;53.81;95041.69;5032024;28;20288;-41
2023/04/28 03:56:53;;;;;;;0.50;0.50;;;15.00;68.70;;;14.79;53.78;95032.97;5014454;28;20207;-41
2023/04/28 03:59:20;;;;;;;0.50;0.50;;;15.00;68.80;;;14.78;54.10;95026.09;5031138;28;20598;-41
2023/04/28 04:01:48;;;;;;;0.50;0.50;;;15.00;68.80;;;14.78;54.35;95028.72;5014819;28;20190;-41
2023/04/28 04:04:15;;;;;;;0.50;0.50;;;15.00;68.80;;;14.77;53.86;95023.63;5047570;28;20638;-41
2023/04/28 04:06:44;;;;;;;0.52;0.52;;;14.90;68.80;;;14.78;54.15;95022.63;5031087;28;20223;-41
2023/04/28 04:09:12;;;;;;;0.60;0.60;;;15.00;68.80;;;14.76;54.18;95014.91;5031587;28;20200;-41
2023/04/28 04:11:40;;;;;;;0.80;0.80;;;14.90;68.80;;;14.75;54.11;95017.78;5015134;28;20582;-42
2023/04/28 04:14:07;;;;;;;0.50;0.50;;;15.00;68.80;;;14.76;54.15;95020.19;5014909;28;20631;-41
2023/04/28 04:16:35;;;;;;;0.60;0.60;;;15.00;68.90;;;14.73;54.13;95016.16;5014400;28;20505;-41
2023/04/28 04:19:05;;;;;;;0.50;0.50;;;15.00;68.90;;;14.75;54.08;95023.06;5035217;28;20689;-41
2023/04/28 04:21:39;;;;;;;0.50;0.50;;;14.90;68.90;;;14.75;54.33;95023.06;5035681;28;20176;-41
2023/04/28 04:24:07;;;;;;;0.60;0.60;;;15.00;69.00;;;14.74;54.36;95022.22;5050808;28;20623;-42
2023/04/28 04:26:34;;;;;;;0.60;0.60;;;14.90;69.00;;;14.74;54.30;95019.59;5035149;28;20192;-41
2023/04/28 04:29:06;;;;;;;0.60;0.60;;;15.00;69.10;;;14.73;54.29;95013.53;5034922;28;20577;-41
2023/04/28 04:31:33;;;;;;;0.60;0.60;;;14.90;69.00;;;14.73;54.33;95013.53;5017890;28;20208;-41
2023/04/28 04:34:00;;;;;;;0.70;0.70;;;14.90;69.00;;;14.71;54.19;95015.56;5034110;28;20192;-41
2023/04/28 04:36:27;;;;;;;0.50;0.50;;;14.90;69.00;;;14.71;54.43;95014.75;5017701;28;20585;-41
2023/04/28 04:38:55;;;;;;;0.70;0.70;;;14.90;69.10;;;14.71;54.09;95015.56;5034059;28;20220;-45
2023/04/28 04:41:22;;;;;;;0.50;0.50;;;14.90;69.10;;;14.71;54.51;95014.75;5033433;28;20207;-44
2023/04/28 04:43:57;;;;;;;0.60;0.60;;;14.90;69.10;;;14.70;54.31;95008.66;5018628;28;20198;-44
2023/04/28 04:46:29;;;;;;;0.63;0.63;;;14.90;69.10;;;14.70;54.40;95006.00;5051200;28;20253;-43
2023/04/28 04:48:57;;;;;;;0.70;0.70;;;14.90;69.10;;;14.70;54.70;95000.72;5017650;28;20546;-44
2023/04/28 04:51:24;;;;;;;0.75;0.75;;;14.90;69.10;;;14.70;54.42;94997.31;5033738;28;20204;-44
2023/04/28 04:53:51;;;;;;;0.60;0.60;;;14.90;69.10;;;14.70;54.32;95006.00;5017571;28;20223;-43
2023/04/28 04:56:19;;;;;;;0.55;0.55;;;14.90;69.10;;;14.70;54.41;95003.38;5033981;28;20643;-43
2023/04/28 04:58:46;;;;;;;0.50;0.50;;;14.90;69.10;;;14.69;54.36;95001.75;5033519;28;20220;-44
2023/04/28 05:01:49;;;;;;;0.50;0.50;;;14.90;69.10;;;14.68;54.44;94994.88;4994133;28;20309;-44
2023/04/28 05:04:16;;;;;;;0.60;0.60;;;14.90;69.20;;;14.68;54.35;95000.16;5026901;28;20200;-43
2023/04/28 05:06:44;;;;;;;0.50;0.50;;;14.90;69.20;;;14.69;54.75;95009.69;5034758;28;20228;-43
2023/04/28 05:09:11;;;;;;;0.50;0.50;;;14.90;69.20;;;14.69;54.84;95022.06;5017030;28;20196;-43
2023/04/28 05:11:38;;;;;;;0.60;0.60;;;14.90;69.30;;;14.70;54.70;95027.13;5017209;28;20295;-43
2023/04/28 05:14:06;;;;;;;0.52;0.52;;;14.90;69.30;;;14.70;54.62;95037.69;5033436;28;20196;-44
2023/04/28 05:16:33;;;;;;;0.60;0.60;;;14.90;69.40;;;14.71;54.54;95039.31;5017305;28;20265;-43
2023/04/28 05:19:22;;;;;;;0.60;0.60;;;14.90;69.50;;;14.70;55.10;95040.34;5016870;28;20228;-44
2023/04/28 05:21:51;;;;;;;0.50;0.50;;;14.90;69.40;;;14.72;55.02;95035.66;5016928;28;20200;-43
2023/04/28 05:24:22;;;;;;;0.60;0.60;;;14.90;69.50;;;14.73;54.85;95032.00;5016824;28;20200;-44
2023/04/28 05:26:51;;;;;;;0.70;0.70;;;14.90;69.50;;;14.73;54.97;95032.00;5033502;28;20199;-44
2023/04/28 05:29:20;;;;;;;0.50;0.50;;;14.90;69.40;;;14.75;54.71;95033.63;5032920;28;20286;-44
2023/04/28 05:31:47;;;;;;;0.60;0.60;;;14.90;69.50;;;14.73;54.81;95016.16;5034515;28;20200;-44
2023/04/28 05:34:15;;;;;;;0.60;0.60;;;14.90;70.40;;;14.75;54.89;95015.94;5016671;28;20196;-44
2023/04/28 05:36:43;;;;;;;0.50;0.50;;;14.90;69.50;;;14.76;55.01;95012.28;5034196;28;20204;-44
2023/04/28 05:39:12;;;;;;;0.50;0.50;;;14.90;69.50;;;14.76;54.82;95022.84;5016668;28;20236;-44
2023/04/28 05:41:40;;;;;;;0.70;0.70;;;15.00;70.50;;;14.77;54.89;95015.72;5033071;28;20216;-44
2023/04/28 05:44:08;;;;;;;0.50;0.50;;;15.00;69.60;;;14.77;54.96;95005.16;5033080;28;20214;-43
2023/04/28 05:46:36;;;;;;;0.60;0.60;;;14.90;69.50;;;14.76;54.98;95006.16;5033001;28;20302;-44
2023/04/28 05:49:03;;;;;;;0.70;0.70;;;15.00;69.60;;;14.79;55.25;95000.47;5016399;28;20711;-44
2023/04/28 05:51:34;;;;;;;0.60;0.60;;;15.00;69.60;;;14.77;54.79;94998.06;5034132;28;20540;-43
2023/04/28 05:54:02;;;;;;;0.50;0.50;;;15.00;69.60;;;14.79;55.11;94995.19;5000567;28;20596;-44
2023/04/28 05:56:32;;;;;;;0.52;0.52;;;15.00;69.60;;;14.78;54.77;94983.84;5017019;28;20513;-44
2023/04/28 05:59:03;;;;;;;0.70;0.70;;;15.00;70.50;;;14.78;55.19;94980.38;5033003;28;20227;-44
2023/04/28 06:01:31;;;;;;;0.60;0.60;;;15.00;69.60;;;14.79;55.03;95003.13;5033282;28;20263;-52
2023/04/28 06:03:58;;;;;;;0.50;0.50;;;15.00;69.30;;;14.78;54.31;95004.97;5000264;28;20216;-53
2023/04/28 06:06:26;;;;;;;0.60;0.60;;;15.00;68.90;;;14.71;54.21;95006.84;5033588;28;20229;-52
2023/04/28 06:08:53;;;;;;;0.70;0.70;;;15.00;68.40;;;14.64;53.50;95020.03;5016454;28;20200;-53
2023/04/28 06:11:21;;;;;;;0.60;0.60;;;14.90;68.00;;;14.57;53.46;95008.72;5016176;28;20596;-48
2023/04/28 06:13:50;;;;;;;0.52;0.52;;;14.90;67.90;;;14.53;53.64;95007.53;5016121;28;20204;-51
2023/04/28 06:16:18;;;;;;;0.55;0.55;;;14.90;67.80;;;14.48;53.58;95015.31;5016084;28;20284;-54
2023/04/28 06:18:46;;;;;;;0.60;0.60;;;14.80;67.70;;;14.45;53.26;95015.72;5015855;28;20307;-48
2023/04/28 06:21:16;;;;;;;0.60;0.60;;;14.80;67.60;;;14.41;53.42;95010.06;5032683;28;20192;-47
2023/04/28 06:23:43;;;;;;;0.50;0.50;;;14.70;67.50;;;14.37;53.19;95014.16;5033424;28;20188;-47
2023/04/28 06:26:11;;;;;;;0.60;0.60;;;14.70;67.30;;;14.33;52.79;95010.31;5032610;28;20200;-46
2023/04/28 06:28:39;;;;;;;0.60;0.60;;;14.60;67.30;;;14.30;53.06;95008.91;5032316;28;20207;-47
2023/04/28 06:31:07;;;;;;;0.70;0.70;;;14.60;67.20;;;14.29;52.83;95009.91;5015780;28;20614;-47
2023/04/28 06:33:35;;;;;;;0.60;0.60;;;14.50;67.10;;;14.26;52.63;95002.44;5033212;28;20623;-47
2023/04/28 06:36:02;;;;;;;0.80;0.80;;;14.50;66.90;;;14.22;52.65;94995.97;5033523;28;20646;-46
2023/04/28 06:38:30;;;;;;;0.60;0.60;;;14.50;67.00;;;14.20;52.58;94992.75;5015762;28;20267;-47
2023/04/28 06:40:56;;;;;;;0.52;0.52;;;14.50;66.80;;;14.15;52.28;94982.81;5032114;28;20635;-47
2023/04/28 06:43:27;;;;;;;0.60;0.60;;;14.40;66.70;;;14.12;52.13;94987.72;5032764;28;20189;-46
2023/04/28 06:46:07;;;;;;;0.70;0.70;;;14.40;66.80;;;14.12;52.20;94991.16;5015702;28;20627;-47
2023/04/28 06:48:35;;;;;;;0.73;0.73;;;14.40;66.80;;;14.12;52.46;94991.16;5032983;28;20284;-49
2023/04/28 06:51:02;;;;;;;0.60;0.60;;;14.30;66.70;;;14.10;52.11;94985.28;5032039;28;20542;-48
2023/04/28 06:53:30;;;;;;;0.50;0.50;;;14.30;66.50;;;14.07;52.21;94981.25;5031922;28;20208;-47
2023/04/28 06:55:58;;;;;;;0.60;0.60;;;14.40;66.50;;;14.05;52.18;94978.00;5015642;28;20510;-48
2023/04/28 06:58:27;;;;;;;0.70;0.70;;;14.30;66.60;;;14.05;52.02;94975.38;5031711;28;20216;-46
2023/04/28 07:00:54;;;;;;;0.70;0.70;;;14.30;66.50;;;14.07;52.15;94975.97;5015480;28;20232;-46
2023/04/28 07:03:21;;;;;;;0.60;0.60;;;14.30;66.70;;;14.08;51.75;94969.66;5033174;28;20285;-46
2023/04/28 07:05:48;;;;;;;0.60;0.60;;;14.20;66.50;;;14.08;51.75;94972.28;5032797;28;20255;-46
2023/04/28 07:08:16;;;;;;;0.60;0.60;;;14.20;66.50;;;14.09;51.78;94967.84;5033040;28;20188;-46
2023/04/28 07:10:43;;;;;;;0.52;0.52;;;14.20;66.40;;;14.08;51.96;94967.03;5032942;28;20207;-46
2023/04/28 07:13:10;;;;;;;0.50;0.50;;;14.30;66.50;;;14.09;51.60;94958.09;5032601;28;20631;-50
2023/04/28 07:15:38;;;;;;;0.70;0.70;;;14.30;66.50;;;14.11;51.69;94965.81;5032614;28;20199;-48
2023/04/28 07:18:06;;;;;;;0.60;0.60;;;14.20;66.30;;;14.11;51.69;94965.00;5032420;28;20216;-49
2023/04/28 07:20:33;;;;;;;0.60;0.60;;;14.30;66.40;;;14.09;51.55;94959.94;5032814;28;20192;-46
2023/04/28 07:23:00;;;;;;;0.70;0.70;;;14.20;66.30;;;14.12;51.42;94969.25;5031808;28;20257;-46
2023/04/28 07:25:27;;;;;;;0.70;0.70;;;14.20;66.40;;;14.13;51.76;94974.31;5032721;28;20197;-50
2023/04/28 07:27:54;;;;;;;0.70;0.70;;;14.30;66.40;;;14.13;51.65;94968.22;5032449;28;20189;-47
2023/04/28 07:30:21;;;;;;;0.52;0.52;;;14.20;66.40;;;14.13;51.37;94970.88;5032863;28;20192;-46
2023/04/28 07:32:54;;;;;;;0.70;0.70;;;14.20;66.30;;;14.14;51.43;94969.84;5032541;28;20176;-51
2023/04/28 07:35:22;;;;;;;0.50;0.50;;;14.20;66.40;;;14.13;51.54;94966.38;5015472;28;20254;-46
2023/04/28 07:37:49;;;;;;;0.60;0.60;;;14.30;66.40;;;14.15;51.12;94956.44;5032313;28;20699;-46
2023/04/28 07:40:18;;;;;;;0.50;0.50;;;14.30;66.30;;;14.15;51.41;94958.28;5032265;28;20196;-46
2023/04/28 07:42:46;;;;;;;0.70;0.70;;;14.30;66.30;;;14.17;51.23;94964.13;5015890;28;20192;-46
2023/04/28 07:45:15;;;;;;;0.57;0.57;;;14.20;66.20;;;14.17;51.10;94954.41;5032196;28;20192;-47
2023/04/28 07:47:42;;;;;;;0.70;0.70;;;14.30;66.20;;;14.18;51.32;94945.44;5015090;28;20197;-46
2023/04/28 07:50:10;;;;;;;0.55;0.55;;;14.30;67.20;;;14.18;50.82;94942.81;5032367;28;20205;-52
2023/04/28 07:52:38;;;;;;;0.60;0.60;;;14.30;66.30;;;14.21;51.41;94941.59;5032145;28;20193;-46
2023/04/28 07:55:06;;;;;;;0.50;0.50;;;14.30;66.30;;;14.21;51.28;94941.59;5032035;28;20627;-49
2023/04/28 07:57:33;;;;;;;0.70;0.70;;;14.30;66.30;;;14.22;51.51;94941.38;5032000;28;20202;-52
2023/04/28 08:00:00;;;;;;;0.60;0.60;;;14.30;66.30;;;14.24;51.41;94939.34;5014674;28;20274;-53
2023/04/28 08:02:27;;;;;;;0.50;0.50;;;14.30;66.40;;;14.24;51.15;94939.34;5032790;28;20188;-48
2023/04/28 08:04:54;;;;;;;0.60;0.60;;;14.30;66.20;;;14.25;51.24;94933.03;5031865;28;20192;-50
2023/04/28 08:07:21;;;;;;;0.70;0.70;;;14.30;66.20;;;14.27;51.04;94929.38;5032037;28;20240;-50
2023/04/28 08:09:49;;;;;;;0.60;0.60;;;14.30;66.20;;;14.28;51.19;94933.63;5032229;28;20208;-46
2023/04/28 08:12:19;;;;;;;0.60;0.60;;;14.40;66.30;;;14.29;51.05;94940.53;5015104;28;20196;-46
2023/04/28 08:14:47;;;;;;;0.50;0.50;;;14.40;66.20;;;14.28;51.11;94945.00;5031487;28;20196;-46
2023/04/28 08:17:15;;;;;;;0.60;0.60;;;14.40;66.10;;;14.29;51.01;94936.03;5100924;28;20590;-46
2023/04/28 08:19:45;;;;;;;0.52;0.52;;;14.40;66.10;;;14.30;51.02;94929.75;5117607;28;20261;-46
2023/04/28 08:22:12;;;;;;;0.80;0.80;;;14.40;66.10;;;14.30;50.95;94931.59;5136193;28;20197;-46
2023/04/28 08:24:39;;;;;;;0.60;0.60;;;14.40;66.10;;;14.32;50.89;94932.16;5135699;28;20242;-46
2023/04/28 08:27:07;;;;;;;0.60;0.60;;;14.40;66.10;;;14.33;50.89;94929.34;5135681;28;20192;-46
2023/04/28 08:29:34;;;;;;;0.70;0.70;;;14.40;66.20;;;14.34;51.27;94930.13;5135565;28;20189;-45
2023/04/28 08:32:01;;;;;;;0.60;0.60;;;14.40;66.10;;;14.36;51.21;94933.38;5136138;28;20204;-46
2023/04/28 08:34:28;;;;;;;0.70;0.70;;;14.40;66.20;;;14.39;51.30;94939.03;5135649;28;20199;-46
2023/04/28 08:36:55;;;;;;;0.40;0.40;;;14.40;66.30;;;14.41;51.00;94936.16;5135874;28;20196;-46
2023/04/28 08:39:22;;;;;;;0.77;0.77;;;14.50;66.30;;;14.45;51.28;94933.91;5135395;28;20215;-46
2023/04/28 08:41:50;;;;;;;0.50;0.50;;;14.50;66.20;;;14.46;51.10;94932.88;5135857;28;20249;-46
2023/04/28 08:44:17;;;;;;;0.70;0.70;;;14.50;66.10;;;14.48;50.87;94930.84;5135818;28;20219;-46
2023/04/28 08:46:48;;;;;;;0.50;0.50;;;14.50;66.20;;;14.49;51.35;94919.25;5135507;28;20228;-46
2023/04/28 08:49:17;;;;;;;0.50;0.50;;;14.50;66.20;;;14.50;51.07;94919.06;5135490;28;20223;-51
2023/04/28 08:51:51;;;;;;;0.50;0.50;;;14.60;66.20;;;14.53;51.23;94912.53;5135481;28;20193;-46
2023/04/28 08:54:19;;;;;;;0.60;0.60;;;14.60;66.20;;;14.56;51.14;94912.09;5136005;28;20552;-46
2023/04/28 08:56:54;;;;;;;0.60;0.60;;;14.70;66.40;;;14.57;51.01;94914.53;5119054;28;20526;-46
2023/04/28 08:59:21;;;;;;;0.70;0.70;;;14.60;66.30;;;14.61;50.93;94911.44;5100916;28;20223;-46
2023/04/28 09:01:49;;;;;;;0.60;0.60;;;14.70;66.40;;;14.64;51.32;94903.91;5117891;28;20189;-47
2023/04/28 09:04:17;;;;;;;0.50;0.50;;;14.70;66.30;;;14.65;51.15;94894.16;5138151;27;20276;-48
2023/04/28 09:06:47;;;;;;;0.60;0.60;;;14.70;66.40;;;14.66;51.35;94880.75;5121664;27;20315;-47
2023/04/28 09:09:24;;;;;;;0.60;0.60;;;14.70;66.30;;;14.68;51.00;94873.44;5138944;27;20192;-52
2023/04/28 09:12:00;;;;;;;0.60;0.60;;;14.70;66.10;;;14.69;51.18;94882.97;5139500;27;20177;-50
2023/04/28 09:14:33;;;;;;;0.68;0.68;;;14.80;66.40;;;14.71;51.18;94882.75;5139283;27;20180;-51
2023/04/28 09:17:12;;;;;;;0.50;0.50;;;14.80;66.20;;;14.74;50.88;94879.66;5121248;27;20180;-46
2023/04/28 09:19:41;;;;;;;0.60;0.60;;;14.80;66.10;;;14.77;50.90;94875.78;5120933;27;20196;-47
2023/04/28 09:22:09;;;;;;;0.50;0.50;;;14.80;66.30;;;14.80;51.17;94872.72;5139674;27;20207;-48
2023/04/28 09:24:52;;;;;;;0.70;0.70;;;14.80;66.40;;;14.83;51.01;94874.91;5123052;27;20591;-47
2023/04/28 09:27:27;;;;;;;0.60;0.60;;;14.90;66.40;;;14.86;50.72;94870.00;5139172;27;20568;-52
2023/04/28 09:29:55;;;;;;;0.40;0.40;;;14.90;66.40;;;14.88;51.39;94869.78;5138833;27;20537;-50
2023/04/28 09:32:22;;;;;;;0.50;0.50;;;14.90;66.50;;;14.91;51.36;94874.63;5138762;27;20197;-46
2023/04/28 09:34:53;;;;;;;0.50;0.50;;;15.00;66.50;;;14.95;51.22;94872.34;5138800;27;20547;-47
2023/04/28 09:37:23;;;;;;;0.50;0.50;;;15.00;66.50;;;14.98;51.11;94867.44;5121149;27;20311;-48
2023/04/28 09:39:53;;;;;;;0.60;0.60;;;15.00;66.50;;;15.02;51.26;94865.94;5104102;27;20205;-46
2023/04/28 09:42:41;;;;;;;0.70;0.70;;;15.00;66.50;;;15.03;51.24;94872.84;5138393;27;20190;-48
2023/04/28 09:45:13;;;;;;;0.55;0.55;;;15.10;66.40;;;15.07;50.85;94862.66;5138401;27;20623;-46
2023/04/28 09:47:46;;;;;;;0.60;0.60;;;15.10;66.50;;;15.10;50.76;94858.75;5138655;27;20188;-50
2023/04/28 09:50:17;;;;;;;0.52;0.52;;;15.10;66.20;;;15.12;51.14;94854.88;5138535;27;20204;-51
2023/04/28 09:52:55;;;;;;;0.50;0.50;;;15.10;66.30;;;15.13;50.55;94845.91;5138430;27;20512;-49
2023/04/28 09:55:24;;;;;;;0.50;0.50;;;15.20;66.20;;;15.18;50.84;94854.00;5138837;27;20215;-47
2023/04/28 09:57:54;;;;;;;0.50;0.50;;;15.20;66.30;;;15.20;50.82;94851.94;5138136;27;20204;-46
2023/04/28 10:00:22;;;;;;;0.50;0.50;;;15.30;66.30;;;15.25;50.98;94848.63;5138191;27;20193;-47
2023/04/28 10:02:50;;;;;;;0.52;0.52;;;15.30;66.40;;;15.28;50.58;94852.66;5120208;27;20191;-46
2023/04/28 10:05:20;;;;;;;0.50;0.50;;;15.30;66.40;;;15.31;50.67;94849.59;5120619;27;20232;-48
2023/04/28 10:07:48;;;;;;;0.50;0.50;;;15.30;66.30;;;15.34;51.02;94849.94;5120697;27;20180;-46
2023/04/28 10:10:15;;;;;;;0.52;0.52;;;15.30;66.30;;;15.36;50.59;94845.22;5137746;27;20197;-46
2023/04/28 10:12:43;;;;;;;0.60;0.60;;;15.40;66.30;;;15.41;50.73;94855.13;5119994;27;20205;-46
2023/04/28 10:15:12;;;;;;;0.50;0.50;;;15.40;66.20;;;15.45;50.67;94847.56;5120277;27;20731;-47
2023/04/28 10:17:39;;;;;;;0.50;0.50;;;15.40;66.00;;;15.48;50.43;94842.63;5137800;27;20217;-47
2023/04/28 10:20:08;;;;;;;0.50;0.50;;;15.50;66.10;;;15.51;50.51;94836.91;5137990;27;20291;-47
2023/04/28 10:23:16;;;;;;;0.65;0.65;;;15.50;66.00;;;15.54;50.71;94830.38;5120051;27;20604;-46
2023/04/28 10:25:49;;;;;;;0.60;0.60;;;15.60;65.80;;;15.57;50.59;94829.13;5137790;27;20592;-46
2023/04/28 10:28:16;;;;;;;0.60;0.60;;;15.60;66.00;;;15.60;50.26;94824.19;5119748;27;20616;-47